createdAt,value
2023-04-30T00:04:29.052Z,82.56
2023-04-30T00:09:28.983Z,82.70
2023-04-30T00:14:28.933Z,82.77
2023-04-30T00:19:28.853Z,82.50
2023-04-30T00:24:28.890Z,82.19
2023-04-30T00:29:28.829Z,82.54
2023-04-30T00:34:28.790Z,82.84
2023-04-30T00:39:28.631Z,82.64
2023-04-30T00:44:28.736Z,82.75
2023-04-30T00:49:28.631Z,82.75
2023-04-30T00:54:28.546Z,82.78
2023-04-30T00:59:28.415Z,83.29
2023-04-30T01:04:28.357Z,83.09
2023-04-30T01:09:28.329Z,82.99
2023-04-30T01:14:28.319Z,83.33
2023-04-30T01:19:28.206Z,83.75
2023-04-30T01:24:28.190Z,83.44
2023-04-30T01:29:29.089Z,82.92
2023-04-30T01:34:28.025Z,83.06
2023-04-30T01:39:28.032Z,83.17
2023-04-30T01:44:28.896Z,83.20
2023-04-30T01:49:27.906Z,82.79
2023-04-30T01:54:27.828Z,83.25
2023-04-30T01:59:27.920Z,82.93
2023-04-30T02:04:27.883Z,83.07
2023-04-30T02:09:27.650Z,83.59
2023-04-30T02:14:27.700Z,83.80
2023-04-30T02:19:27.558Z,84.31
2023-04-30T02:24:27.486Z,83.70
2023-04-30T02:29:27.424Z,84.14
2023-04-30T02:34:27.391Z,84.56
2023-04-30T02:39:27.325Z,83.84
2023-04-30T02:44:27.266Z,83.42
2023-04-30T02:49:27.265Z,84.08
2023-04-30T02:54:27.126Z,84.19
2023-04-30T02:59:27.181Z,83.77
2023-04-30T03:04:27.064Z,84.22
2023-04-30T03:09:27.181Z,84.01
2023-04-30T03:14:26.886Z,83.85
2023-04-30T03:19:26.924Z,84.64
2023-04-30T03:24:26.813Z,84.22
2023-04-30T03:29:26.835Z,84.12
2023-04-30T03:34:26.769Z,83.71
2023-04-30T03:39:26.658Z,84.12
2023-04-30T03:44:26.621Z,84.22
2023-04-30T03:49:26.856Z,83.85
2023-04-30T03:54:26.498Z,83.75
2023-04-30T03:59:35.278Z,83.95
2023-04-30T04:04:26.395Z,84.27
2023-04-30T04:09:26.346Z,83.99
2023-04-30T04:14:26.275Z,84.09
2023-04-30T04:19:26.191Z,84.41
2023-04-30T04:24:26.159Z,84.20
2023-04-30T04:29:26.098Z,83.78
2023-04-30T04:34:26.051Z,84.81
2023-04-30T04:39:25.993Z,84.72
2023-04-30T04:44:25.913Z,84.78
2023-04-30T04:49:25.874Z,84.84
2023-04-30T04:54:25.809Z,85.15
2023-04-30T04:59:25.751Z,85.01
2023-04-30T05:04:25.690Z,85.49
2023-04-30T05:09:25.679Z,85.34
2023-04-30T05:14:26.704Z,85.61
2023-04-30T05:19:25.550Z,84.48
2023-04-30T05:24:25.465Z,83.83
2023-04-30T05:29:25.463Z,84.71
2023-04-30T05:34:25.382Z,83.64
2023-04-30T05:39:25.287Z,83.50
2023-04-30T05:44:25.275Z,83.40
2023-04-30T05:49:25.215Z,82.70
2023-04-30T05:54:25.141Z,82.05
2023-04-30T05:59:25.122Z,81.02
2023-04-30T06:04:25.054Z,80.64
2023-04-30T06:09:25.073Z,80.19
2023-04-30T06:14:25.943Z,79.24
2023-04-30T06:19:24.945Z,78.49
2023-04-30T06:24:24.817Z,77.45
2023-04-30T06:29:24.900Z,76.16
2023-04-30T06:34:24.851Z,74.96
2023-04-30T06:39:24.632Z,74.66
2023-04-30T06:44:24.632Z,74.21
2023-04-30T06:49:24.560Z,73.13
2023-04-30T06:54:24.465Z,73.77
2023-04-30T06:59:24.468Z,72.34
2023-04-30T07:04:24.363Z,72.78
2023-04-30T07:09:24.320Z,70.58
2023-04-30T07:14:24.293Z,69.53
2023-04-30T07:19:24.250Z,70.01
2023-04-30T07:24:24.150Z,69.06
2023-04-30T07:29:24.154Z,68.52
2023-04-30T07:34:24.051Z,67.44
2023-04-30T07:39:23.996Z,66.49
2023-04-30T07:44:23.909Z,66.40
2023-04-30T07:49:23.892Z,64.92
2023-04-30T07:54:23.842Z,63.61
2023-04-30T07:59:23.748Z,62.50
2023-04-30T08:04:23.773Z,61.63
2023-04-30T08:09:25.693Z,60.09
2023-04-30T08:14:23.654Z,60.82
2023-04-30T08:19:23.624Z,61.53
2023-04-30T08:24:23.471Z,61.85
2023-04-30T08:29:25.418Z,58.36
2023-04-30T08:34:23.381Z,59.97
2023-04-30T08:39:24.394Z,58.94
2023-04-30T08:44:23.266Z,57.68
2023-04-30T08:49:32.067Z,57.35
2023-04-30T08:54:23.158Z,57.50
2023-04-30T08:59:23.101Z,56.51
2023-04-30T09:04:23.120Z,57.12
2023-04-30T09:09:23.070Z,55.21
2023-04-30T09:14:23.040Z,55.26
2023-04-30T09:19:22.870Z,54.15
2023-04-30T09:24:22.816Z,53.55
2023-04-30T09:29:22.787Z,54.22
2023-04-30T09:34:22.751Z,53.09
2023-04-30T09:39:22.660Z,53.17
2023-04-30T09:44:22.720Z,51.59
2023-04-30T09:49:22.580Z,52.01
2023-04-30T09:54:22.542Z,50.66
2023-04-30T09:59:22.561Z,51.76
2023-04-30T10:04:22.571Z,51.67
2023-04-30T10:09:22.364Z,51.14
2023-04-30T10:14:22.356Z,50.81
2023-04-30T10:19:22.246Z,49.74
2023-04-30T10:24:22.214Z,48.63
2023-04-30T10:29:22.142Z,49.31
2023-04-30T10:34:22.246Z,49.81
2023-04-30T10:39:22.049Z,47.76
2023-04-30T10:44:22.137Z,49.98
2023-04-30T10:49:22.000Z,49.29
2023-04-30T10:54:21.894Z,48.58
2023-04-30T10:59:21.878Z,47.88
2023-04-30T11:04:21.861Z,50.01
2023-04-30T11:09:21.751Z,47.96
2023-04-30T11:14:21.749Z,48.74
2023-04-30T11:19:21.666Z,45.88
2023-04-30T11:24:21.597Z,46.94
2023-04-30T11:29:21.603Z,45.72
2023-04-30T11:34:21.483Z,46.12
2023-04-30T11:39:21.527Z,46.01
2023-04-30T11:44:21.495Z,46.80
2023-04-30T11:49:21.327Z,45.48
2023-04-30T11:54:21.299Z,47.58
2023-04-30T11:59:21.267Z,46.26
2023-04-30T12:04:21.284Z,45.98
2023-04-30T12:09:21.223Z,47.05
2023-04-30T12:14:21.108Z,46.65
2023-04-30T12:19:21.091Z,46.95
2023-04-30T12:24:21.015Z,45.70
2023-04-30T12:29:24.500Z,43.98
2023-04-30T12:34:21.008Z,44.60
2023-04-30T12:39:21.019Z,46.55
2023-04-30T12:44:20.806Z,47.72
2023-04-30T12:49:20.767Z,46.19
2023-04-30T12:54:20.733Z,44.52
2023-04-30T12:59:20.876Z,44.60
2023-04-30T13:04:20.667Z,46.00
2023-04-30T13:09:20.578Z,45.95
2023-04-30T13:14:20.515Z,46.35
2023-04-30T13:19:20.408Z,45.12
2023-04-30T13:24:23.794Z,44.16
2023-04-30T13:29:20.354Z,45.06
2023-04-30T13:34:20.392Z,44.08
2023-04-30T13:39:20.339Z,43.55
2023-04-30T13:44:20.186Z,44.46
2023-04-30T13:49:20.131Z,44.32
2023-04-30T13:54:20.124Z,45.10
2023-04-30T13:59:20.044Z,44.06
2023-04-30T14:04:20.004Z,45.00
2023-04-30T14:09:21.061Z,44.50
2023-04-30T14:14:19.840Z,44.62
2023-04-30T14:19:19.834Z,45.28
2023-04-30T14:24:19.778Z,44.20
2023-04-30T14:29:21.589Z,43.98
2023-04-30T14:34:20.743Z,45.48
2023-04-30T14:39:19.676Z,43.92
2023-04-30T14:44:20.595Z,46.20
2023-04-30T14:49:19.488Z,45.26
2023-04-30T14:54:19.508Z,43.60
2023-04-30T14:59:19.425Z,44.68
2023-04-30T15:04:19.386Z,44.32
2023-04-30T15:09:19.367Z,46.39
2023-04-30T15:14:19.236Z,45.84
2023-04-30T15:19:19.308Z,45.12
2023-04-30T15:24:19.103Z,46.37
2023-04-30T15:29:27.867Z,46.95
2023-04-30T15:34:18.987Z,45.57
2023-04-30T15:39:19.087Z,46.69
2023-04-30T15:44:18.941Z,47.52
2023-04-30T15:49:18.880Z,46.61
2023-04-30T15:54:18.861Z,47.04
2023-04-30T15:59:19.781Z,46.94
2023-04-30T16:04:18.686Z,47.16
2023-04-30T16:09:18.609Z,47.24
2023-04-30T16:14:18.572Z,47.85
2023-04-30T16:19:18.610Z,47.86
2023-04-30T16:24:18.546Z,47.66
2023-04-30T16:29:18.444Z,47.89
2023-04-30T16:34:18.530Z,48.19
2023-04-30T16:39:18.359Z,47.79
2023-04-30T16:44:18.235Z,49.90
2023-04-30T16:49:18.171Z,48.87
2023-04-30T16:54:18.165Z,49.40
2023-04-30T16:59:18.156Z,48.61
2023-04-30T17:04:18.094Z,48.61
2023-04-30T17:09:18.026Z,48.54
2023-04-30T17:14:17.994Z,50.23
2023-04-30T17:19:17.860Z,50.13
2023-04-30T17:24:17.767Z,49.73
2023-04-30T17:29:17.732Z,50.13
2023-04-30T17:34:17.668Z,50.35
2023-04-30T17:39:17.735Z,50.98
2023-04-30T17:44:17.675Z,51.08
2023-04-30T17:49:17.584Z,51.18
2023-04-30T17:54:17.571Z,51.31
2023-04-30T17:59:17.371Z,51.31
2023-04-30T18:04:17.437Z,52.01
2023-04-30T18:09:17.296Z,52.34
2023-04-30T18:14:17.225Z,52.84
2023-04-30T18:19:17.759Z,52.76
2023-04-30T18:24:17.240Z,53.07
2023-04-30T18:29:17.793Z,53.93
2023-04-30T18:34:17.044Z,53.60
2023-04-30T18:39:16.979Z,53.70
2023-04-30T18:44:16.892Z,54.46
2023-04-30T18:49:16.833Z,54.56
2023-04-30T18:54:16.846Z,54.66
2023-04-30T18:59:16.732Z,54.89
2023-04-30T19:04:16.659Z,55.93
2023-04-30T19:09:16.724Z,55.82
2023-04-30T19:14:16.653Z,56.56
2023-04-30T19:19:16.504Z,56.28
2023-04-30T19:24:16.477Z,57.29
2023-04-30T19:29:16.392Z,56.48
2023-04-30T19:34:16.387Z,56.69
2023-04-30T19:39:16.341Z,56.92
2023-04-30T19:44:16.265Z,57.12
2023-04-30T19:49:16.185Z,57.73
2023-04-30T19:54:16.108Z,59.88
2023-04-30T19:59:16.074Z,59.91
2023-04-30T20:04:16.002Z,60.24
2023-04-30T20:09:15.988Z,60.98
2023-04-30T20:14:15.921Z,61.82
2023-04-30T20:19:15.903Z,63.07
2023-04-30T20:24:15.792Z,63.68
2023-04-30T20:29:15.786Z,64.73
2023-04-30T20:34:15.698Z,65.57
2023-04-30T20:39:15.648Z,65.67
2023-04-30T20:44:15.540Z,64.35
2023-04-30T20:49:15.564Z,64.45
2023-04-30T20:54:15.566Z,65.19
2023-04-30T20:59:15.468Z,65.60
2023-04-30T21:04:15.396Z,64.79
2023-04-30T21:09:15.334Z,65.22
2023-04-30T21:14:15.289Z,65.83
2023-04-30T21:19:15.218Z,66.27
2023-04-30T21:24:15.120Z,66.68
2023-04-30T21:29:24.914Z,67.93
2023-04-30T21:34:14.971Z,68.48
2023-04-30T21:39:15.054Z,68.78
2023-04-30T21:44:14.959Z,69.29
2023-04-30T21:49:14.905Z,70.34
2023-04-30T21:54:14.851Z,70.54
2023-04-30T21:59:14.789Z,70.98
2023-04-30T22:04:14.714Z,70.89
2023-04-30T22:09:14.590Z,68.51
2023-04-30T22:14:14.633Z,69.02
2023-04-30T22:19:14.601Z,71.09
2023-04-30T22:24:14.539Z,71.80
2023-04-30T22:29:14.442Z,72.34
2023-04-30T22:34:17.757Z,73.06
2023-04-30T22:39:14.296Z,73.10
2023-04-30T22:44:14.220Z,73.30
2023-04-30T22:49:27.366Z,73.13
2023-04-30T22:54:15.096Z,73.44
2023-04-30T22:59:15.114Z,73.54
2023-04-30T23:04:14.076Z,73.03
2023-04-30T23:09:13.968Z,73.44
2023-04-30T23:14:13.890Z,74.25
2023-04-30T23:19:15.902Z,74.35
2023-04-30T23:24:13.787Z,74.18
2023-04-30T23:29:13.715Z,74.18
2023-04-30T23:34:13.653Z,74.59
2023-04-30T23:39:13.645Z,75.34
2023-04-30T23:44:13.534Z,75.65
2023-04-30T23:49:13.598Z,75.34
2023-04-30T23:54:13.425Z,76.06
2023-04-30T23:59:13.447Z,76.50
